Time;durP1;ratioP1;P1;durP2;ratioP2;P2;SDS_P1;SDS_P2;PMS_P1;PMS_P2;Temp;Humidity;BMP_temperature;BMP_pressure;BME280_temperature;BME280_humidity;BME280_pressure;Samples;Min_cycle;Max_cycle;Signal;HPM_P1;HPM_P2
2022/10/25 00:01:03;;;;;;;8.05;4.15;;;;;;;13.13;90.75;100689.72;7397946;19;20026;-65
2022/10/25 00:03:32;;;;;;;6.60;3.63;;;;;;;13.12;90.76;100685.38;7397939;19;20018;-66
2022/10/25 00:06:00;;;;;;;7.82;3.63;;;;;;;13.10;90.92;100681.91;7400344;19;20019;-66
2022/10/25 00:08:28;;;;;;;7.07;3.25;;;;;;;13.10;91.01;100686.31;7399974;19;20502;-66
2022/10/25 00:10:57;;;;;;;13.98;4.00;;;;;;;13.09;91.06;100696.00;7398680;19;20031;-66
2022/10/25 00:13:28;;;;;;;13.73;3.95;;;;;;;13.08;91.32;100694.28;7397660;19;20049;-66
2022/10/25 00:15:56;;;;;;;11.82;4.63;;;;;;;13.08;91.21;100694.28;7400483;19;20022;-66
2022/10/25 00:18:25;;;;;;;8.68;4.00;;;;;;;13.06;91.46;100690.84;7399955;19;20023;-66
2022/10/25 00:20:54;;;;;;;7.88;3.95;;;;;;;13.06;91.21;100690.84;7398824;19;20078;-66
2022/10/25 00:23:22;;;;;;;8.02;3.53;;;;;;;13.07;91.51;100694.31;7399056;19;20019;-66
2022/10/25 00:25:51;;;;;;;10.43;3.83;;;;;;;13.06;91.59;100696.09;7397418;19;20031;-69
2022/10/25 00:28:19;;;;;;;7.70;3.55;;;;;;;13.05;91.22;100694.38;7399606;19;20371;-68
2022/10/25 00:31:00;;;;;;;9.88;3.75;;;;;;;13.04;91.25;100703.19;7398327;19;20031;-68
2022/10/25 00:33:31;;;;;;;12.95;4.53;;;;;;;13.04;91.35;100700.53;7399892;19;20039;-68
2022/10/25 00:36:05;;;;;;;11.63;4.30;;;;;;;13.01;91.43;100696.25;7399778;19;20035;-68
2022/10/25 00:38:34;;;;;;;10.68;4.53;;;;;;;13.02;91.35;100699.75;7399691;19;20018;-69
2022/10/25 00:41:03;;;;;;;9.40;3.78;;;;;;;13.01;91.38;100698.03;7398149;19;20018;-73
2022/10/25 00:43:37;;;;;;;7.68;3.45;;;;;;;13.01;91.55;100695.38;7399084;19;20018;-69
2022/10/25 00:46:13;;;;;;;7.70;3.78;;;;;;;13.01;91.62;100692.75;7397308;19;20026;-69
2022/10/25 00:48:43;;;;;;;8.95;4.05;;;;;;;13.02;91.94;100699.75;7398604;19;20477;-69
2022/10/25 00:51:12;;;;;;;9.65;3.55;;;;;;;13.03;91.60;100702.34;7396514;19;20032;-69
2022/10/25 00:53:40;;;;;;;11.45;3.53;;;;;;;13.06;91.57;100693.47;7398391;19;20383;-69
2022/10/25 00:56:15;;;;;;;6.95;3.47;;;;;;;13.08;91.58;100698.66;7398378;19;20022;-69
2022/10/25 00:58:47;;;;;;;9.35;3.88;;;;;;;13.09;91.64;100696.00;7398900;19;20032;-69
2022/10/25 01:01:19;;;;;;;8.82;3.50;;;;;;;13.10;91.41;100699.50;7394512;19;20015;-69
2022/10/25 01:03:51;;;;;;;8.93;3.83;;;;;;;13.10;91.29;100697.72;7398937;19;20039;-69
2022/10/25 01:06:24;;;;;;;9.68;3.97;;;;;;;13.10;91.19;100692.44;7398891;19;20238;-69
2022/10/25 01:08:55;;;;;;;10.55;3.58;;;;;;;13.08;91.40;100696.03;7398026;19;20505;-69
2022/10/25 01:11:24;;;;;;;8.93;3.70;;;;;;;13.09;91.23;100696.00;7396516;19;20022;-69
2022/10/25 01:13:53;;;;;;;9.95;3.60;;;;;;;13.07;91.20;100689.94;7398778;19;20022;-68
2022/10/25 01:16:33;;;;;;;13.80;4.05;;;;;;;13.07;91.07;100692.56;7398060;19;20070;-68
2022/10/25 01:19:14;;;;;;;6.57;4.05;;;;;;;13.06;91.15;100684.72;7397497;19;20426;-68
2022/10/25 01:21:55;;;;;;;10.30;3.92;;;;;;;13.03;91.27;100685.69;7396511;19;20031;-68
2022/10/25 01:24:57;;;;;;;10.90;3.92;;;;;;;13.02;91.18;100683.94;7396361;19;20018;-67
2022/10/25 01:27:53;;;;;;;8.20;3.58;;;;;;;13.00;91.38;100688.41;7394669;19;20074;-68
2022/10/25 01:30:24;;;;;;;8.50;4.20;;;;;;;12.95;91.12;100683.28;7397333;19;20014;-68
2022/10/25 01:33:15;;;;;;;8.45;3.13;;;;;;;12.95;91.28;100679.78;7395929;19;20018;-68
2022/10/25 01:35:53;;;;;;;11.73;3.92;;;;;;;12.92;91.39;100686.00;7397896;19;20031;-68
2022/10/25 01:38:31;;;;;;;11.20;3.50;;;;;;;12.90;91.52;100690.47;7395962;19;20022;-68
2022/10/25 01:41:11;;;;;;;11.45;3.92;;;;;;;12.86;91.70;100691.47;7396644;19;20047;-68
2022/10/25 01:43:48;;;;;;;10.75;4.07;;;;;;;12.85;91.41;100689.75;7397253;19;20431;-68
2022/10/25 01:46:24;;;;;;;8.68;3.78;;;;;;;12.81;91.86;100686.34;7395649;19;20022;-68
2022/10/25 01:49:01;;;;;;;15.98;4.07;;;;;;;12.79;91.69;100689.94;7397096;19;20019;-67
2022/10/25 01:51:30;;;;;;;13.82;3.60;;;;;;;12.76;91.88;100692.69;7394637;19;20018;-68
2022/10/25 01:53:59;;;;;;;6.35;3.83;;;;;;;12.74;91.86;100694.50;7396488;19;20492;-68
2022/10/25 01:56:30;;;;;;;9.75;3.67;;;;;;;12.71;91.95;100687.56;7394754;19;20035;-67
2022/10/25 01:59:18;;;;;;;8.25;3.70;;;;;;;12.68;92.23;100699.03;7394584;19;20488;-68
2022/10/25 02:02:02;;;;;;;10.98;3.92;;;;;;;12.66;92.15;100703.50;7394501;19;20022;-67
2022/10/25 02:04:45;;;;;;;10.80;3.90;;;;;;;12.63;92.23;100702.75;7395318;19;20022;-67
2022/10/25 02:07:21;;;;;;;11.40;4.28;;;;;;;12.60;92.23;100706.34;7395093;19;20019;-68
2022/10/25 02:10:01;;;;;;;8.52;4.18;;;;;;;12.53;92.56;100708.28;7394402;19;20563;-67
2022/10/25 02:12:34;;;;;;;7.68;4.40;;;;;;;12.53;92.71;100710.91;7395230;19;20391;-68
2022/10/25 02:15:10;;;;;;;9.00;4.20;;;;;;;12.49;92.69;100711.91;7397103;19;20034;-69
2022/10/25 02:17:45;;;;;;;11.00;4.00;;;;;;;12.47;92.82;100713.75;7398489;19;20041;-68
2022/10/25 02:20:19;;;;;;;8.68;4.50;;;;;;;12.47;92.68;100713.75;7397142;19;20390;-68
2022/10/25 02:22:48;;;;;;;7.95;3.83;;;;;;;12.45;92.89;100710.28;7394107;19;20014;-68
2022/10/25 02:25:18;;;;;;;6.28;3.80;;;;;;;12.45;92.83;100712.03;7393869;19;20021;-67
2022/10/25 02:27:47;;;;;;;8.07;3.88;;;;;;;12.43;92.93;100712.09;7395372;19;20015;-67
2022/10/25 02:30:16;;;;;;;11.43;4.05;;;;;;;12.42;92.98;100710.34;7393927;19;20039;-68
2022/10/25 02:32:46;;;;;;;6.30;3.75;;;;;;;12.42;92.92;100709.50;7393539;19;20098;-68
2022/10/25 02:35:20;;;;;;;10.80;4.45;;;;;;;12.42;93.08;100710.34;7395304;19;20039;-68
2022/10/25 02:37:48;;;;;;;7.82;3.90;;;;;;;12.41;92.97;100708.66;7395792;19;20053;-68
2022/10/25 02:40:17;;;;;;;8.35;4.10;;;;;;;12.42;92.89;100709.50;7395026;19;20078;-68
2022/10/25 02:42:46;;;;;;;8.38;3.97;;;;;;;12.41;92.72;100707.78;7395336;19;20022;-68
2022/10/25 02:45:14;;;;;;;12.52;4.32;;;;;;;12.39;92.89;100713.09;7393212;19;20397;-68
2022/10/25 02:47:43;;;;;;;7.70;4.30;;;;;;;12.38;92.82;100717.50;7393004;19;20544;-68
2022/10/25 02:50:11;;;;;;;8.35;3.70;;;;;;;12.37;92.66;100709.63;7394451;19;20035;-68
2022/10/25 02:52:42;;;;;;;8.15;3.42;;;;;;;12.38;92.67;100719.25;7394084;19;20024;-68
2022/10/25 02:55:18;;;;;;;9.15;4.20;;;;;;;12.37;92.72;100715.78;7395485;19;20427;-68
2022/10/25 02:57:46;;;;;;;8.68;3.88;;;;;;;12.38;92.59;100721.91;7392921;19;20039;-68
2022/10/25 03:00:16;;;;;;;10.23;3.95;;;;;;;12.39;92.64;100721.00;7392379;19;20410;-68
2022/10/25 03:02:45;;;;;;;10.00;3.50;;;;;;;12.39;92.55;100721.84;7394645;19;20035;-68
2022/10/25 03:05:13;;;;;;;7.32;3.30;;;;;;;12.39;92.44;100718.34;7394710;19;20035;-68
2022/10/25 03:07:44;;;;;;;12.43;3.50;;;;;;;12.41;92.42;100720.94;7394116;19;20529;-68
2022/10/25 03:10:13;;;;;;;6.25;3.40;;;;;;;12.42;92.25;100728.78;7393864;19;20018;-68
2022/10/25 03:12:41;;;;;;;8.57;3.40;;;;;;;12.43;92.14;100734.91;7392076;19;20078;-68
2022/10/25 03:15:18;;;;;;;11.55;5.07;;;;;;;12.41;91.98;100732.34;7393200;19;20022;-68
2022/10/25 03:17:46;;;;;;;12.15;4.82;;;;;;;12.43;92.28;100741.03;7392256;19;20516;-68
2022/10/25 03:20:15;;;;;;;10.20;4.15;;;;;;;12.45;92.15;100739.22;7394078;19;20086;-69
2022/10/25 03:22:46;;;;;;;7.85;3.78;;;;;;;12.45;92.25;100746.25;7393902;19;20516;-69
2022/10/25 03:25:15;;;;;;;7.82;3.08;;;;;;;12.46;92.33;100737.44;7397996;19;20010;-68
2022/10/25 03:27:43;;;;;;;9.65;3.47;;;;;;;12.48;92.12;100739.13;7401138;19;20481;-67
2022/10/25 03:30:14;;;;;;;9.57;3.25;;;;;;;12.49;91.95;100743.50;7401151;19;20091;-67
2022/10/25 03:32:43;;;;;;;7.95;3.22;;;;;;;12.51;91.92;100746.94;7400751;19;20022;-68
2022/10/25 03:35:11;;;;;;;12.90;3.55;;;;;;;12.53;91.91;100749.53;7398373;19;20086;-68
2022/10/25 03:37:40;;;;;;;6.45;3.10;;;;;;;12.54;91.83;100748.63;7401049;19;20077;-67
2022/10/25 03:40:12;;;;;;;10.07;3.47;;;;;;;12.55;91.67;100747.72;7397962;19;20422;-73
2022/10/25 03:42:41;;;;;;;11.05;3.05;;;;;;;12.59;91.85;100748.50;7401285;19;20074;-72
2022/10/25 03:45:11;;;;;;;8.07;3.13;;;;;;;12.62;91.60;100753.66;7400980;19;20086;-67
2022/10/25 03:47:39;;;;;;;4.50;2.67;;;;;;;12.62;91.41;100749.25;7401150;19;20022;-66
2022/10/25 03:50:09;;;;;;;13.23;4.45;;;;;;;12.64;91.55;100755.31;7400404;19;20035;-66
2022/10/25 03:52:38;;;;;;;6.13;2.85;;;;;;;12.65;91.31;100753.53;7397669;19;20082;-67
2022/10/25 03:55:08;;;;;;;13.70;3.17;;;;;;;12.66;91.17;100755.28;7397714;19;20431;-67
2022/10/25 03:57:39;;;;;;;9.88;2.90;;;;;;;12.66;91.31;100755.28;7397788;19;20081;-67
2022/10/25 04:00:09;;;;;;;6.38;2.70;;;;;;;12.67;91.16;100755.22;7398047;19;20086;-67
2022/10/25 04:02:37;;;;;;;6.45;3.13;;;;;;;12.69;91.12;100760.47;7400032;19;20039;-66
2022/10/25 04:05:06;;;;;;;5.80;2.90;;;;;;;12.70;90.95;100762.16;7399777;19;20082;-67
2022/10/25 04:07:35;;;;;;;5.00;3.17;;;;;;;12.70;90.92;100764.78;7396889;19;20552;-65
2022/10/25 04:10:03;;;;;;;8.82;3.03;;;;;;;12.70;90.73;100764.78;7399282;19;20540;-67
2022/10/25 04:12:32;;;;;;;7.40;2.92;;;;;;;12.70;90.71;100768.31;7399328;19;20159;-66
2022/10/25 04:15:03;;;;;;;8.25;3.03;;;;;;;12.70;90.69;100770.94;7400061;19;20078;-66
2022/10/25 04:17:32;;;;;;;8.82;3.00;;;;;;;12.71;90.65;100775.31;7397297;19;20544;-66
2022/10/25 04:20:01;;;;;;;9.00;2.90;;;;;;;12.71;90.51;100777.06;7397174;19;20016;-67
2022/10/25 04:22:29;;;;;;;10.20;2.70;;;;;;;12.70;90.58;100772.69;7398622;19;20073;-66
2022/10/25 04:24:57;;;;;;;9.13;3.70;;;;;;;12.71;90.77;100774.41;7397696;19;20094;-66
2022/10/25 04:27:26;;;;;;;7.38;2.90;;;;;;;12.71;90.44;100771.78;7399095;19;20027;-66
2022/10/25 04:29:54;;;;;;;6.15;3.05;;;;;;;12.71;90.55;100770.03;7399337;19;20084;-67
2022/10/25 04:32:25;;;;;;;8.88;2.65;;;;;;;12.71;90.42;100774.41;7396122;19;20082;-66
2022/10/25 04:34:54;;;;;;;10.13;3.10;;;;;;;12.72;90.50;100770.88;7397454;19;20078;-66
2022/10/25 04:37:22;;;;;;;8.93;3.15;;;;;;;12.71;90.38;100771.78;7395344;19;20482;-66
2022/10/25 04:39:51;;;;;;;10.48;2.88;;;;;;;12.70;90.42;100767.44;7396498;19;20086;-65
2022/10/25 04:42:19;;;;;;;10.20;3.13;;;;;;;12.70;90.54;100768.31;7396485;19;20082;-65
2022/10/25 04:44:48;;;;;;;7.88;3.10;;;;;;;12.71;90.26;100771.78;7398684;19;20070;-66
2022/10/25 04:47:16;;;;;;;6.68;2.95;;;;;;;12.71;90.56;100775.31;7398558;19;20090;-66
2022/10/25 04:49:47;;;;;;;7.97;3.10;;;;;;;12.70;90.44;100773.56;7398145;19;20430;-66
2022/10/25 04:52:16;;;;;;;6.50;3.00;;;;;;;12.71;90.40;100772.66;7396009;19;20548;-67
2022/10/25 04:54:44;;;;;;;10.55;3.67;;;;;;;12.70;90.21;100775.31;7396497;19;20085;-67
2022/10/25 04:57:12;;;;;;;6.68;3.00;;;;;;;12.70;90.32;100770.94;7396884;19;20070;-67
2022/10/25 04:59:41;;;;;;;10.88;3.20;;;;;;;12.68;90.19;100780.66;7396273;19;20437;-66
2022/10/25 05:02:09;;;;;;;6.03;2.42;;;;;;;12.68;90.16;100777.16;7396414;19;20077;-66
2022/10/25 05:04:38;;;;;;;5.80;2.60;;;;;;;12.69;90.17;100776.25;7395832;19;20014;-66
2022/10/25 05:07:09;;;;;;;9.27;3.28;;;;;;;12.68;90.14;100785.06;7397737;19;20074;-66
2022/10/25 05:09:37;;;;;;;10.80;2.50;;;;;;;12.68;90.16;100785.91;7396538;19;20098;-66
2022/10/25 05:12:07;;;;;;;9.82;2.88;;;;;;;12.67;89.92;100789.44;7395738;19;20082;-66
2022/10/25 05:14:35;;;;;;;9.30;2.72;;;;;;;12.66;90.07;100795.63;7396012;19;20090;-66
2022/10/25 05:17:04;;;;;;;9.00;3.33;;;;;;;12.65;90.08;100785.13;7394911;19;20074;-66
2022/10/25 05:19:32;;;;;;;6.43;2.65;;;;;;;12.66;90.05;100789.50;7395307;19;20033;-67
2022/10/25 05:22:00;;;;;;;4.55;2.45;;;;;;;12.65;90.22;100793.03;7395154;19;20081;-66
2022/10/25 05:24:32;;;;;;;8.27;2.63;;;;;;;12.64;90.24;100788.69;7394444;19;20010;-67
2022/10/25 05:27:00;;;;;;;11.73;2.88;;;;;;;12.63;90.24;100795.72;7396291;19;20070;-66
2022/10/25 05:29:28;;;;;;;6.70;2.80;;;;;;;12.62;90.18;100787.88;7395015;19;20070;-65
2022/10/25 05:31:58;;;;;;;13.07;3.05;;;;;;;12.60;90.17;100800.19;7395122;19;20078;-66
2022/10/25 05:34:27;;;;;;;6.95;2.67;;;;;;;12.60;90.17;100800.19;7395709;19;20074;-66
2022/10/25 05:36:55;;;;;;;7.03;2.65;;;;;;;12.58;90.33;100807.31;7397105;19;20077;-65
2022/10/25 05:39:24;;;;;;;10.75;3.25;;;;;;;12.58;90.04;100813.41;7397012;19;20104;-66
2022/10/25 05:41:55;;;;;;;5.05;2.60;;;;;;;12.58;90.40;100809.94;7394767;19;20418;-67
2022/10/25 05:44:23;;;;;;;6.18;2.00;;;;;;;12.57;90.19;100797.66;7395064;19;20430;-65
2022/10/25 05:46:52;;;;;;;8.00;3.20;;;;;;;12.58;90.09;100804.66;7395986;19;20025;-66
2022/10/25 05:49:20;;;;;;;7.60;2.72;;;;;;;12.56;90.24;100807.31;7396632;19;20091;-66
2022/10/25 05:51:49;;;;;;;8.30;2.70;;;;;;;12.55;89.91;100803.84;7395750;19;20026;-65
2022/10/25 05:54:18;;;;;;;10.13;2.63;;;;;;;12.55;89.93;100811.72;7394685;19;20410;-66
2022/10/25 05:56:46;;;;;;;4.68;2.20;;;;;;;12.54;90.29;100807.38;7396664;19;20039;-66
2022/10/25 05:59:17;;;;;;;4.60;2.38;;;;;;;12.53;90.07;100818.78;7394606;19;20086;-66
2022/10/25 06:01:47;;;;;;;6.57;2.50;;;;;;;12.53;90.06;100825.84;7394913;19;20019;-65
2022/10/25 06:04:17;;;;;;;6.25;2.35;;;;;;;12.52;90.12;100821.47;7394934;19;20028;-65
2022/10/25 06:06:47;;;;;;;8.35;2.80;;;;;;;12.51;90.26;100828.53;7395607;19;20597;-66
2022/10/25 06:09:16;;;;;;;4.10;2.30;;;;;;;12.51;90.06;100825.91;7395337;19;20010;-67
2022/10/25 06:11:44;;;;;;;7.45;2.20;;;;;;;12.51;90.06;100832.91;7394763;19;20422;-67
2022/10/25 06:14:13;;;;;;;6.85;2.67;;;;;;;12.51;90.27;100836.41;7394618;19;20414;-67
2022/10/25 06:16:44;;;;;;;11.40;2.90;;;;;;;12.52;90.46;100842.53;7395913;19;20502;-67
2022/10/25 06:19:12;;;;;;;8.90;2.28;;;;;;;12.54;90.29;100843.38;7393419;19;20015;-66
2022/10/25 06:21:41;;;;;;;8.43;2.40;;;;;;;12.53;90.12;100845.13;7394037;19;20098;-66
2022/10/25 06:24:11;;;;;;;12.68;3.00;;;;;;;12.56;90.11;100852.06;7394750;19;20090;-66
2022/10/25 06:26:39;;;;;;;10.27;2.45;;;;;;;12.56;90.07;100844.16;7395801;19;20019;-66
2022/10/25 06:29:08;;;;;;;13.75;2.67;;;;;;;12.60;89.99;100855.47;7396302;19;20511;-67
2022/10/25 06:31:36;;;;;;;10.57;2.55;;;;;;;12.61;89.97;100857.19;7394224;19;20082;-66
2022/10/25 06:34:07;;;;;;;6.13;2.28;;;;;;;12.62;90.14;100861.56;7392891;19;20420;-67
2022/10/25 06:36:35;;;;;;;6.45;1.90;;;;;;;12.63;89.95;100861.50;7393063;19;20074;-66
2022/10/25 06:39:04;;;;;;;10.25;2.17;;;;;;;12.65;89.91;100866.72;7394852;19;20022;-66
2022/10/25 06:41:32;;;;;;;5.85;2.60;;;;;;;12.67;89.62;100864.94;7393528;19;20093;-66
2022/10/25 06:44:01;;;;;;;11.55;2.20;;;;;;;12.69;89.66;100873.66;7394299;19;20036;-66
2022/10/25 06:46:32;;;;;;;7.50;2.35;;;;;;;12.71;89.49;100870.06;7395180;19;20022;-66
2022/10/25 06:49:04;;;;;;;6.65;2.35;;;;;;;12.74;89.60;100870.88;7392615;19;20077;-66
2022/10/25 06:51:35;;;;;;;5.53;2.15;;;;;;;12.75;89.57;100876.13;7395518;19;20070;-66
2022/10/25 06:54:08;;;;;;;5.53;2.28;;;;;;;12.78;89.33;100883.06;7393636;19;20505;-66
2022/10/25 06:56:37;;;;;;;5.30;1.92;;;;;;;12.80;89.33;100886.50;7394781;19;20037;-66
2022/10/25 06:59:08;;;;;;;8.07;1.90;;;;;;;12.82;88.77;100887.31;7396875;19;20018;-66
2022/10/25 07:01:37;;;;;;;6.22;1.80;;;;;;;12.85;88.87;100890.72;7400343;19;20015;-66
2022/10/25 07:04:06;;;;;;;8.68;2.35;;;;;;;12.88;88.97;100890.63;7402078;19;20086;-66
2022/10/25 07:06:37;;;;;;;9.98;1.90;;;;;;;12.90;88.68;100893.22;7402265;19;20074;-66
2022/10/25 07:09:08;;;;;;;7.10;2.70;;;;;;;12.93;88.80;100894.88;7401544;19;20090;-66
2022/10/25 07:11:37;;;;;;;8.98;2.50;;;;;;;12.97;88.64;100901.81;7399828;19;20019;-66
2022/10/25 07:14:05;;;;;;;7.53;2.60;;;;;;;13.00;88.42;100899.09;7397887;19;20015;-66
2022/10/25 07:16:34;;;;;;;8.80;2.05;;;;;;;13.02;88.40;100894.66;7398588;19;20014;-66
2022/10/25 07:19:03;;;;;;;5.80;2.35;;;;;;;13.07;88.36;100894.47;7398704;19;20099;-66
2022/10/25 07:21:33;;;;;;;7.82;2.55;;;;;;;13.10;88.24;100895.25;7398924;19;20082;-66
2022/10/25 07:24:04;;;;;;;5.28;1.73;;;;;;;13.13;88.15;100896.94;7400843;19;20089;-65
2022/10/25 07:26:34;;;;;;;9.25;2.05;;;;;;;13.16;88.00;100899.50;7402222;19;20010;-68
2022/10/25 07:29:05;;;;;;;8.05;2.42;;;;;;;13.19;87.91;100896.75;7401977;19;20021;-66
2022/10/25 07:31:35;;;;;;;8.88;2.58;;;;;;;13.24;87.67;100899.25;7399647;19;20066;-66
2022/10/25 07:34:06;;;;;;;9.63;2.03;;;;;;;13.27;87.40;100901.78;7397738;19;20015;-65
2022/10/25 07:36:34;;;;;;;7.70;1.90;;;;;;;13.28;87.31;100907.03;7398075;19;20078;-66
2022/10/25 07:39:05;;;;;;;7.15;1.95;;;;;;;13.31;87.23;100909.56;7400198;19;20418;-66
2022/10/25 07:41:34;;;;;;;5.47;1.98;;;;;;;13.35;87.07;100910.34;7398409;19;20039;-67
2022/10/25 07:44:03;;;;;;;9.18;1.95;;;;;;;13.39;86.77;100908.50;7397654;19;20372;-66
2022/10/25 07:46:31;;;;;;;9.80;1.80;;;;;;;13.42;86.58;100913.69;7400474;19;20083;-66
2022/10/25 07:49:00;;;;;;;10.77;1.92;;;;;;;13.45;86.55;100917.09;7397646;19;20027;-66
2022/10/25 07:51:28;;;;;;;7.32;2.08;;;;;;;13.50;86.55;100917.81;7398066;19;20015;-66
2022/10/25 07:53:57;;;;;;;6.43;2.30;;;;;;;13.54;85.98;100923.00;7400155;19;20070;-67
2022/10/25 07:56:29;;;;;;;11.50;2.17;;;;;;;13.57;86.29;100918.47;7397875;19;20086;-67
2022/10/25 07:58:58;;;;;;;6.85;1.98;;;;;;;13.61;85.30;100920.13;7400130;19;20037;-67
2022/10/25 08:01:28;;;;;;;7.53;1.73;;;;;;;13.65;85.71;100920.88;7398547;19;20094;-67
2022/10/25 08:03:58;;;;;;;4.18;1.52;;;;;;;13.70;85.58;100918.97;7399709;19;20065;-66
2022/10/25 08:06:27;;;;;;;7.63;1.90;;;;;;;13.74;85.39;100922.38;7397638;19;20018;-65
2022/10/25 08:08:55;;;;;;;5.68;1.95;;;;;;;13.76;85.30;100926.69;7397202;19;20031;-66
2022/10/25 08:11:24;;;;;;;5.47;1.77;;;;;;;13.78;84.94;100927.47;7396517;19;20091;-66
2022/10/25 08:13:55;;;;;;;6.25;1.63;;;;;;;13.82;84.79;100922.97;7398721;19;20074;-66
2022/10/25 08:16:23;;;;;;;6.13;1.85;;;;;;;13.84;84.93;100918.50;7397567;19;20078;-66
2022/10/25 08:18:51;;;;;;;3.88;1.38;;;;;;;13.86;84.37;100921.94;7399199;19;20549;-67
2022/10/25 08:21:20;;;;;;;7.30;2.03;;;;;;;13.87;84.20;100926.31;7396991;19;20082;-66
2022/10/25 08:23:48;;;;;;;8.80;1.95;;;;;;;13.88;84.21;100930.69;7398737;19;20588;-66
2022/10/25 08:26:25;;;;;;;5.60;1.40;;;;;;;13.92;83.58;100931.44;7396661;19;20027;-66
2022/10/25 08:28:56;;;;;;;6.47;1.50;;;;;;;13.97;84.23;100927.72;7396883;19;20011;-66
2022/10/25 08:31:25;;;;;;;8.32;2.47;;;;;;;14.04;84.21;100933.69;7397729;19;20089;-66
2022/10/25 08:33:53;;;;;;;4.80;1.92;;;;;;;14.08;83.62;100934.41;7395966;19;20086;-67
2022/10/25 08:36:23;;;;;;;10.45;2.22;;;;;;;14.13;83.34;100940.44;7399056;19;20043;-66
2022/10/25 08:38:51;;;;;;;8.10;2.85;;;;;;;14.17;83.19;100934.13;7399685;19;20014;-66
2022/10/25 08:41:24;;;;;;;6.07;1.50;;;;;;;14.23;83.10;100938.31;7397240;19;20576;-66
2022/10/25 08:44:16;;;;;;;5.83;1.73;;;;;;;14.28;81.84;100941.66;7399619;19;20080;-66
2022/10/25 08:46:55;;;;;;;4.95;1.40;;;;;;;14.33;82.51;100934.44;7396289;19;20509;-66
2022/10/25 08:49:35;;;;;;;4.53;1.75;;;;;;;14.39;81.58;100950.06;7398438;19;20046;-66
2022/10/25 08:52:07;;;;;;;5.38;1.67;;;;;;;14.46;81.94;100941.03;7396909;19;20095;-66
2022/10/25 08:54:40;;;;;;;5.95;1.48;;;;;;;14.53;81.67;100941.69;7398352;19;20019;-66
2022/10/25 08:57:12;;;;;;;6.00;1.48;;;;;;;14.60;81.56;100942.34;7395904;19;20418;-65
2022/10/25 08:59:47;;;;;;;6.63;1.50;;;;;;;14.67;80.20;100938.59;7396327;19;20018;-64
2022/10/25 09:02:21;;;;;;;8.65;1.42;;;;;;;14.74;80.33;100944.53;7396777;19;20090;-68
2022/10/25 09:04:50;;;;;;;6.63;1.20;;;;;;;14.83;80.26;100946.81;7396836;19;20399;-68
2022/10/25 09:07:53;;;;;;;8.93;2.17;;;;;;;14.90;77.79;100948.34;7397743;19;20074;-69
2022/10/25 09:10:32;;;;;;;6.70;1.63;;;;;;;15.03;78.64;100943.44;7397797;19;20080;-70
2022/10/25 09:13:08;;;;;;;7.45;1.60;;;;;;;15.13;78.51;100952.75;7395768;19;20525;-69
2022/10/25 09:15:54;;;;;;;5.15;1.40;;;;;;;15.19;76.46;100951.69;7395013;19;20082;-70
2022/10/25 09:18:28;;;;;;;4.75;1.42;;;;;;;15.24;77.46;100952.38;7395919;19;20074;-69
2022/10/25 09:20:58;;;;;;;2.60;1.42;;;;;;;15.29;76.56;100953.03;7394687;19;20018;-70
2022/10/25 09:23:31;;;;;;;4.00;1.48;;;;;;;15.32;76.77;100952.06;7396275;19;20074;-70
2022/10/25 09:26:07;;;;;;;7.00;1.73;;;;;;;15.36;76.53;100961.59;7395118;19;20087;-68
2022/10/25 09:28:51;;;;;;;8.73;1.95;;;;;;;15.41;76.04;100956.16;7397332;19;20094;-70
2022/10/25 09:31:25;;;;;;;4.80;1.35;;;;;;;15.45;76.40;100953.28;7394783;19;20020;-69
2022/10/25 09:33:59;;;;;;;7.72;2.20;;;;;;;15.52;76.45;100948.66;7394885;19;20073;-68
2022/10/25 09:36:30;;;;;;;6.55;1.50;;;;;;;15.54;75.52;100961.81;7395546;19;20337;-70
2022/10/25 09:39:03;;;;;;;2.83;1.70;;;;;;;15.58;74.67;100968.69;7396696;19;20022;-70
2022/10/25 09:41:37;;;;;;;3.90;1.23;;;;;;;15.64;75.08;100973.75;7395547;19;20035;-68
2022/10/25 09:44:12;;;;;;;7.82;1.33;;;;;;;15.65;74.71;100964.91;7396785;19;20420;-71
2022/10/25 09:46:48;;;;;;;9.77;1.50;;;;;;;15.73;73.03;100973.41;7396126;19;20031;-68
2022/10/25 09:49:24;;;;;;;6.15;1.25;;;;;;;15.76;72.31;100973.25;7394812;19;20074;-68
2022/10/25 09:52:01;;;;;;;3.20;1.15;;;;;;;15.81;73.11;100981.03;7395195;19;20086;-69
2022/10/25 09:54:34;;;;;;;7.95;1.50;;;;;;;15.82;72.39;100979.25;7395185;19;20026;-70
2022/10/25 09:57:02;;;;;;;5.22;1.00;;;;;;;15.85;73.22;100990.59;7395340;19;20066;-70
2022/10/25 09:59:31;;;;;;;3.92;0.93;;;;;;;15.89;73.26;100986.03;7395209;19;20090;-70
2022/10/25 10:02:02;;;;;;;6.00;1.02;;;;;;;15.92;73.07;100988.56;7395096;19;20031;-68
2022/10/25 10:04:36;;;;;;;7.32;1.25;;;;;;;15.94;72.63;100992.00;7396974;19;20070;-69
2022/10/25 10:07:08;;;;;;;6.47;1.00;;;;;;;15.99;72.91;101002.41;7396129;19;20548;-70
2022/10/25 10:09:38;;;;;;;3.92;1.02;;;;;;;15.99;72.55;100995.31;7396479;19;20014;-67
2022/10/25 10:12:08;;;;;;;4.72;1.25;;;;;;;15.99;72.50;100997.97;7394627;19;20085;-65
2022/10/25 10:14:42;;;;;;;3.63;0.98;;;;;;;15.98;71.16;101004.19;7395207;19;20014;-66
2022/10/25 10:17:19;;;;;;;7.68;1.20;;;;;;;15.96;70.72;101011.31;7395933;19;20083;-67
2022/10/25 10:20:18;;;;;;;7.03;1.40;;;;;;;15.91;70.38;101015.94;7394153;19;20086;-65
2022/10/25 10:22:49;;;;;;;4.90;1.10;;;;;;;15.83;71.51;101010.09;7395579;19;20018;-68
2022/10/25 10:25:21;;;;;;;5.55;1.20;;;;;;;15.77;71.26;101013.78;7393499;19;20074;-69
2022/10/25 10:27:52;;;;;;;3.88;1.70;;;;;;;15.69;71.61;101016.75;7393347;19;20018;-68
2022/10/25 10:30:27;;;;;;;3.60;1.42;;;;;;;15.61;71.25;101022.34;7393192;19;20073;-68
2022/10/25 10:33:02;;;;;;;5.43;1.75;;;;;;;15.57;72.17;101020.72;7395033;19;20022;-68
2022/10/25 10:35:36;;;;;;;15.32;1.48;;;;;;;15.51;71.84;101018.31;7393911;19;20070;-68
2022/10/25 10:38:27;;;;;;;5.63;1.00;;;;;;;15.45;71.61;101014.09;7395465;19;20018;-69
2022/10/25 10:41:13;;;;;;;6.82;1.05;;;;;;;15.46;72.48;101022.91;7394288;19;20041;-68
2022/10/25 10:43:42;;;;;;;5.95;1.75;;;;;;;15.41;72.42;101032.81;7396598;19;20082;-68
2022/10/25 10:46:15;;;;;;;6.10;1.50;;;;;;;15.39;72.57;101037.28;7394938;19;20078;-68
2022/10/25 10:48:45;;;;;;;6.20;0.98;;;;;;;15.39;72.54;101017.00;7394798;19;20517;-67
2022/10/25 10:51:36;;;;;;;6.38;0.98;;;;;;;15.44;72.83;101030.91;7392764;19;20074;-68
2022/10/25 10:54:25;;;;;;;4.28;1.42;;;;;;;15.50;72.91;101035.09;7395816;19;20074;-68
2022/10/25 10:56:56;;;;;;;7.80;1.30;;;;;;;15.54;72.66;101025.28;7393175;19;20198;-68
2022/10/25 10:59:34;;;;;;;8.35;1.35;;;;;;;15.59;72.61;101023.31;7392479;19;20026;-68
2022/10/25 11:02:18;;;;;;;4.38;0.82;;;;;;;15.64;71.89;101026.63;7392830;19;20074;-68
2022/10/25 11:04:50;;;;;;;10.95;2.00;;;;;;;15.67;71.66;101041.53;7394124;19;20078;-68
2022/10/25 11:07:29;;;;;;;4.40;0.98;;;;;;;15.69;71.35;101029.13;7394462;19;20018;-68
2022/10/25 11:10:26;;;;;;;3.22;1.15;;;;;;;15.72;71.87;101029.88;7392788;19;20023;-67
2022/10/25 11:13:09;;;;;;;4.88;1.05;;;;;;;15.76;71.57;101041.19;7392023;19;20118;-68
2022/10/25 11:16:00;;;;;;;3.42;0.75;;;;;;;15.80;71.11;101037.50;7392623;19;20074;-69
2022/10/25 11:18:36;;;;;;;6.65;1.23;;;;;;;15.80;71.65;101027.75;7394080;19;20082;-69
2022/10/25 11:21:15;;;;;;;5.25;1.10;;;;;;;15.83;71.87;101034.75;7392592;19;20074;-68
2022/10/25 11:24:00;;;;;;;6.03;1.17;;;;;;;15.85;71.54;101030.28;7394454;19;20077;-66
2022/10/25 11:26:35;;;;;;;3.90;1.23;;;;;;;15.85;72.46;101046.16;7391685;19;20078;-65
2022/10/25 11:29:13;;;;;;;10.98;1.88;;;;;;;15.80;74.25;101043.63;7392240;19;20081;-65
2022/10/25 11:31:56;;;;;;;3.80;1.52;;;;;;;15.72;76.38;101045.72;7392354;19;20019;-66
2022/10/25 11:34:36;;;;;;;4.25;1.73;;;;;;;15.61;76.17;101043.50;7392978;19;20420;-66
2022/10/25 11:37:14;;;;;;;9.35;3.63;;;;;;;15.45;76.83;101032.63;7391187;19;20074;-71
2022/10/25 11:39:57;;;;;;;14.73;5.63;;;;;;;15.29;77.90;101044.69;7393225;19;20513;-69
2022/10/25 11:42:57;;;;;;;19.73;6.25;;;;;;;15.14;78.27;101039.06;7391174;19;20022;-68
2022/10/25 11:45:41;;;;;;;13.10;5.00;;;;;;;15.02;78.78;101031.56;7394248;19;20070;-69
2022/10/25 11:48:36;;;;;;;8.13;2.88;;;;;;;14.96;78.94;101034.41;7397440;19;20031;-69